KPVW

Hale County Airport

Plainview, Texas, USA
METAR KPVW 211955Z AUTO 27027G33KT 10SM CLR 12/M13 A2975 RMK AO2 T01181127
Observed Flight Rules
Jan-21 @ 19:55 UTC (29 minutes ago) Visual Flight Rules
Wind Visibility Clouds
270° at 27 knots
 Gusting to 33 knots
10 miles
  • Clear skies
Temperatures Readings
Current 12°C / 54°F
Dewpoint -13°C / 9°F
Humidity 16%
Altimeter 29.75" Hg
Pressure 1007 hPa
Elevation 1028
METAR KPVW 211955Z AUTO 27027G33KT 10SM CLR 12/M13 A2975 RMK AO2 T01181127
Observed Flight Rules
Jan-21 @ 19:55 UTC
(29 minutes ago)
VFR
Wind Visibility
270° at 27 knots
 Gusting to 33 knots
10 miles
Clouds
  • Clear skies
Temperature Dewpoint
12°C / 54°F -13°C / 9°F
Humidity Altimeter Pressure
16% 29.75" Hg 1007 hPa